Time;durP1;ratioP1;P1;durP2;ratioP2;P2;SDS_P1;SDS_P2;PMS_P1;PMS_P2;Temp;Humidity;BMP_temperature;BMP_pressure;BME280_temperature;BME280_humidity;BME280_pressure;Samples;Min_cycle;Max_cycle;Signal;HPM_P1;HPM_P2
2022/01/06 00:01:18;;;;;;;150.32;70.10;;;;;;;12.88;100.00;98908.94;4830261;29;20061;-67
2022/01/06 00:04:08;;;;;;;143.52;69.63;;;;;;;12.87;100.00;98907.25;4830663;29;20611;-66
2022/01/06 00:06:52;;;;;;;146.10;69.88;;;;;;;12.87;100.00;98907.25;4830120;29;20050;-65
2022/01/06 00:09:41;;;;;;;145.95;67.32;;;;;;;12.97;100.00;98911.19;4831841;29;20062;-66
2022/01/06 00:12:29;;;;;;;150.93;71.18;;;;;;;12.95;100.00;98911.25;4850699;29;20560;-66
2022/01/06 00:15:40;;;;;;;154.73;71.63;;;;;;;12.97;100.00;98916.38;4854038;29;20720;-65
2022/01/06 00:18:34;;;;;;;144.73;69.38;;;;;;;12.94;100.00;98917.31;4817130;29;20061;-67
2022/01/06 00:24:35;;;;;;;152.88;71.97;;;;;;;13.06;100.00;98931.56;4812576;29;20058;-66
2022/01/06 00:27:11;;;;;;;154.73;71.45;;;;;;;13.03;100.00;98931.66;4806230;29;20050;-66
2022/01/06 00:29:58;;;;;;;157.73;69.53;;;;;;;13.04;100.00;98938.53;4804023;29;20078;-66
2022/01/06 00:32:39;;;;;;;156.73;71.68;;;;;;;13.06;100.00;98944.50;4816164;29;20053;-66
2022/01/06 00:35:34;;;;;;;152.55;71.28;;;;;;;13.06;100.00;98939.31;4817152;29;20062;-66
2022/01/06 00:38:10;;;;;;;158.25;74.30;;;;;;;13.01;100.00;98946.38;4801190;29;20777;-66
2022/01/06 00:40:59;;;;;;;158.57;75.67;;;;;;;12.95;100.00;98954.34;4817613;29;20069;-66
2022/01/06 00:43:48;;;;;;;159.30;74.85;;;;;;;12.97;100.00;98950.84;4816347;29;20115;-66
2022/01/06 00:46:30;;;;;;;156.60;73.28;;;;;;;12.94;100.00;98953.50;4813277;29;20066;-66
2022/01/06 00:49:20;;;;;;;148.48;73.38;;;;;;;12.98;100.00;98956.84;4784739;29;20051;-66
2022/01/06 00:52:14;;;;;;;161.57;76.05;;;;;;;13.01;100.00;98961.91;4798897;29;20082;-66
2022/01/06 00:54:51;;;;;;;157.85;74.40;;;;;;;13.04;100.00;98962.66;4800001;29;20553;-66
2022/01/06 00:57:39;;;;;;;157.00;73.15;;;;;;;13.02;100.00;98967.03;4784660;29;20462;-65
2022/01/06 01:00:30;;;;;;;161.52;75.93;;;;;;;13.04;100.00;98972.16;4798854;29;20065;-66
2022/01/06 01:03:21;;;;;;;155.70;72.20;;;;;;;13.06;100.00;98972.09;4813397;29;20478;-66
2022/01/06 01:06:08;;;;;;;155.43;73.95;;;;;;;13.02;100.00;98967.03;4820217;29;20054;-66
2022/01/06 01:08:51;;;;;;;158.68;75.40;;;;;;;13.13;100.00;98968.38;4808854;29;20061;-66
2022/01/06 01:11:39;;;;;;;172.48;77.90;;;;;;;13.06;100.00;98967.78;4834411;29;20136;-66
2022/01/06 01:14:32;;;;;;;168.90;76.47;;;;;;;13.01;100.00;98974.81;4826856;29;20053;-66
2022/01/06 01:17:24;;;;;;;176.00;78.20;;;;;;;13.07;100.00;98973.78;4830393;29;20050;-66
2022/01/06 01:20:06;;;;;;;172.13;78.43;;;;;;;13.08;100.00;98978.91;4823046;29;20372;-66
2022/01/06 01:22:55;;;;;;;164.98;75.05;;;;;;;13.03;100.00;98980.78;4802707;29;20146;-66
2022/01/06 01:25:51;;;;;;;166.63;76.45;;;;;;;12.97;100.00;98975.84;4813405;29;20078;-65
2022/01/06 01:28:45;;;;;;;157.35;76.38;;;;;;;12.99;100.00;98987.00;4826475;29;20596;-65
2022/01/06 01:31:31;;;;;;;168.88;75.90;;;;;;;13.09;100.00;98979.75;4828909;29;20053;-66
2022/01/06 01:34:29;;;;;;;170.25;77.88;;;;;;;13.05;100.00;98986.75;4826179;29;20061;-66
2022/01/06 01:37:05;;;;;;;167.38;77.97;;;;;;;12.98;100.00;98988.72;4825016;29;20049;-66
2022/01/06 01:40:01;;;;;;;165.52;79.57;;;;;;;12.97;100.00;98988.78;4825022;29;20045;-66
2022/01/06 01:42:37;;;;;;;163.57;79.15;;;;;;;13.05;100.00;98999.69;4827863;29;20050;-65
2022/01/06 01:45:29;;;;;;;164.82;76.78;;;;;;;13.04;100.00;98998.00;4827642;29;20498;-66
2022/01/06 01:48:18;;;;;;;171.25;78.35;;;;;;;13.01;100.00;99001.53;4840253;29;20057;-66
2022/01/06 01:51:13;;;;;;;169.60;76.95;;;;;;;13.07;100.00;99012.59;4815360;29;20712;-66
2022/01/06 01:53:49;;;;;;;168.88;80.53;;;;;;;13.05;100.00;99010.03;4836857;29;20053;-66
2022/01/06 01:56:44;;;;;;;166.23;78.88;;;;;;;13.07;100.00;99023.78;4813434;29;20047;-66
2022/01/06 01:59:20;;;;;;;172.93;79.72;;;;;;;13.00;100.00;99020.56;4825626;29;20701;-66
2022/01/06 02:02:14;;;;;;;167.43;80.15;;;;;;;13.01;100.00;99023.97;4814754;29;20367;-66
2022/01/06 02:04:52;;;;;;;175.23;77.90;;;;;;;13.00;100.00;99035.22;4847663;29;20045;-66
2022/01/06 02:07:46;;;;;;;;;;;;;;;13.06;100.00;99034.16;4838859;29;20066;-67
2022/01/06 02:10:22;;;;;;;168.07;77.75;;;;;;;13.11;100.00;99037.44;4836430;29;19968;-67
2022/01/06 02:13:10;;;;;;;176.25;80.40;;;;;;;13.08;100.00;99047.91;4846466;29;20057;-67
2022/01/06 02:15:53;;;;;;;171.25;78.60;;;;;;;13.06;100.00;99042.78;4846686;29;20045;-67
2022/01/06 02:18:41;;;;;;;177.80;80.50;;;;;;;13.06;100.00;99045.34;4848515;29;20057;-66
2022/01/06 02:21:29;;;;;;;170.70;81.20;;;;;;;13.09;100.00;99047.00;4842428;29;20797;-67
2022/01/06 02:24:17;;;;;;;186.52;84.72;;;;;;;13.12;100.00;99055.50;4841294;29;20056;-66
2022/01/06 02:27:07;;;;;;;177.13;81.70;;;;;;;13.14;100.00;99061.50;4843253;29;20139;-66
2022/01/06 02:29:57;;;;;;;188.35;86.65;;;;;;;12.99;100.00;99055.06;4843804;29;20050;-66
2022/01/06 02:32:40;;;;;;;187.35;82.28;;;;;;;13.12;100.00;99062.41;4843776;29;20057;-65
2022/01/06 02:35:31;;;;;;;173.48;84.00;;;;;;;13.10;100.00;99072.78;4845385;29;20093;-68
2022/01/06 02:38:12;;;;;;;178.85;85.38;;;;;;;13.16;100.00;99074.38;4843603;29;20064;-66
2022/01/06 02:41:02;;;;;;;184.93;85.93;;;;;;;13.16;100.00;99075.22;4844760;29;20485;-66
2022/01/06 02:43:56;;;;;;;185.63;86.15;;;;;;;13.15;100.00;99083.03;4842627;29;20069;-66
2022/01/06 02:46:39;;;;;;;177.77;85.57;;;;;;;13.17;100.00;99086.44;4849331;29;20057;-67
2022/01/06 02:49:34;;;;;;;167.77;82.45;;;;;;;13.19;100.00;99092.38;4840586;29;20046;-67
2022/01/06 02:52:10;;;;;;;172.35;81.43;;;;;;;13.25;100.00;99090.41;4842765;29;20053;-66
2022/01/06 02:54:57;;;;;;;178.90;84.18;;;;;;;13.17;100.00;99091.59;4849003;29;20060;-64
2022/01/06 02:57:45;;;;;;;186.45;84.72;;;;;;;13.19;100.00;99100.13;4842803;29;20365;-66
2022/01/06 03:00:28;;;;;;;186.40;87.55;;;;;;;13.25;100.00;99103.34;4843175;29;20133;-66
2022/01/06 03:03:16;;;;;;;191.00;90.78;;;;;;;13.21;100.00;99099.19;4840500;29;20053;-67
2022/01/06 03:06:05;;;;;;;199.82;92.72;;;;;;;13.24;100.00;99103.44;4846075;29;20052;-67
2022/01/06 03:08:53;;;;;;;210.55;94.07;;;;;;;13.23;100.00;99104.31;4844293;29;20059;-66
2022/01/06 03:11:40;;;;;;;202.35;94.78;;;;;;;13.27;100.00;99111.91;4830190;29;20083;-66
2022/01/06 03:14:30;;;;;;;;;;;;;;;13.29;100.00;99115.31;4846510;29;20053;-67
2022/01/06 03:17:12;;;;;;;206.93;93.78;;;;;;;13.24;100.00;99116.34;4843686;29;20356;-66
2022/01/06 03:20:01;;;;;;;201.07;93.32;;;;;;;13.34;100.00;99121.16;4842007;29;20049;-66
2022/01/06 03:22:44;;;;;;;205.55;96.70;;;;;;;13.23;100.00;99122.44;4844880;29;20529;-66
2022/01/06 03:25:31;;;;;;;193.88;91.65;;;;;;;13.37;100.00;99121.06;4845995;29;20057;-66
2022/01/06 03:28:28;;;;;;;204.23;91.72;;;;;;;13.31;100.00;99130.78;4827448;29;20375;-66
2022/01/06 03:31:03;;;;;;;196.23;94.28;;;;;;;13.37;100.00;99135.75;4830178;29;20050;-67
2022/01/06 03:33:58;;;;;;;201.43;93.72;;;;;;;13.49;100.00;99135.31;4828776;29;20057;-67
2022/01/06 03:36:34;;;;;;;199.10;94.45;;;;;;;13.50;100.00;99141.31;4849622;29;20045;-66
2022/01/06 03:39:28;;;;;;;188.05;91.85;;;;;;;13.44;100.00;99149.31;4840350;29;20057;-66
2022/01/06 03:42:07;;;;;;;196.95;93.32;;;;;;;13.45;100.00;99151.84;4840837;29;20050;-67
2022/01/06 03:44:56;;;;;;;187.65;90.80;;;;;;;13.40;100.00;99151.16;4841434;29;20110;-67
2022/01/06 03:47:44;;;;;;;193.30;93.32;;;;;;;13.32;100.00;99150.59;4837938;29;20160;-67
2022/01/06 03:50:26;;;;;;;186.93;94.18;;;;;;;13.41;100.00;99155.41;4846810;29;20045;-66
2022/01/06 03:53:14;;;;;;;196.80;93.13;;;;;;;13.39;100.00;99165.00;4837472;29;20077;-66
2022/01/06 03:55:58;;;;;;;188.77;91.45;;;;;;;13.47;100.00;99169.91;4839639;29;20041;-67
2022/01/06 03:58:49;;;;;;;188.40;93.63;;;;;;;13.54;100.00;99179.16;4835971;29;20553;-66
2022/01/06 04:01:31;;;;;;;187.57;90.68;;;;;;;13.51;100.00;99174.94;4827102;29;20460;-66
2022/01/06 04:04:20;;;;;;;190.48;92.60;;;;;;;13.45;100.00;99182.06;4843488;29;20057;-67
2022/01/06 04:07:02;;;;;;;195.65;96.07;;;;;;;13.46;100.00;99188.94;4837469;29;20109;-66
2022/01/06 04:09:52;;;;;;;193.88;92.57;;;;;;;13.52;100.00;99189.56;4845378;29;20049;-67
2022/01/06 04:12:35;;;;;;;184.38;91.47;;;;;;;13.45;100.00;99190.66;4846225;29;20060;-67
2022/01/06 04:15:26;;;;;;;201.27;91.05;;;;;;;13.44;100.00;99195.91;4847854;29;20054;-67
2022/01/06 04:18:07;;;;;;;199.13;92.53;;;;;;;13.45;100.00;99211.38;4843582;29;20549;-65
2022/01/06 04:20:56;;;;;;;196.07;91.55;;;;;;;13.49;100.00;99212.13;4827971;29;20054;-66
2022/01/06 04:23:38;;;;;;;175.48;85.15;;;;;;;13.36;100.00;99209.09;4845714;29;20665;-64
2022/01/06 04:26:35;;;;;;;181.73;85.30;;;;;;;13.48;100.00;99216.47;4840784;29;20054;-66
2022/01/06 04:29:11;;;;;;;183.30;85.95;;;;;;;13.60;100.00;99207.44;4837035;29;20052;-66
2022/01/06 04:31:59;;;;;;;179.00;85.63;;;;;;;13.60;100.00;99208.28;4840691;29;20125;-66
2022/01/06 04:34:41;;;;;;;186.13;86.32;;;;;;;13.64;100.00;99207.28;4833968;29;20053;-66
2022/01/06 04:37:29;;;;;;;178.10;84.80;;;;;;;13.65;100.00;99215.88;4835407;29;20049;-67
2022/01/06 04:40:18;;;;;;;186.25;86.72;;;;;;;13.66;100.00;99210.66;4834720;29;20045;-65
2022/01/06 04:43:01;;;;;;;189.73;88.32;;;;;;;13.58;100.00;99216.97;4835837;29;20498;-65
2022/01/06 04:45:50;;;;;;;193.27;89.50;;;;;;;13.58;100.00;99211.81;4830999;29;20062;-65
2022/01/06 04:48:34;;;;;;;191.65;87.57;;;;;;;13.58;100.00;99212.66;4826890;29;20069;-65
2022/01/06 04:51:22;;;;;;;190.50;85.70;;;;;;;13.66;100.00;99214.97;4830005;29;20057;-65
2022/01/06 04:54:05;;;;;;;189.73;88.30;;;;;;;13.56;100.00;99216.22;4832117;29;20054;-65
2022/01/06 04:56:52;;;;;;;201.80;87.45;;;;;;;13.52;100.00;99223.22;4841425;29;20049;-65
2022/01/06 04:59:36;;;;;;;193.00;88.15;;;;;;;13.59;100.00;99216.09;4838007;29;20050;-65
2022/01/06 05:02:24;;;;;;;188.45;87.88;;;;;;;13.66;100.00;99222.75;4823725;29;20744;-64
2022/01/06 05:05:21;;;;;;;189.23;88.72;;;;;;;13.57;100.00;99215.31;4839065;29;20046;-66
2022/01/06 05:08:09;;;;;;;195.70;91.60;;;;;;;13.83;100.00;99222.16;4839699;29;20073;-66
2022/01/06 05:10:51;;;;;;;191.98;90.03;;;;;;;13.62;100.00;99221.16;4828422;29;20061;-65
2022/01/06 05:13:39;;;;;;;193.88;91.70;;;;;;;13.75;100.00;99225.03;4843514;29;20088;-66
2022/01/06 05:16:22;;;;;;;198.60;89.35;;;;;;;13.92;100.00;99220.13;4839831;29;20046;-67
2022/01/06 05:19:11;;;;;;;190.15;90.43;;;;;;;13.82;100.00;99221.31;4843101;29;20057;-65
2022/01/06 05:21:53;;;;;;;194.13;87.53;;;;;;;13.78;100.00;99230.13;4832901;29;20069;-68
2022/01/06 05:24:48;;;;;;;191.23;88.63;;;;;;;13.71;100.00;99223.47;4838261;29;20081;-66
2022/01/06 05:27:39;;;;;;;181.90;86.32;;;;;;;13.73;100.00;99219.03;4817553;29;20054;-67
2022/01/06 05:30:31;;;;;;;177.65;86.43;;;;;;;13.88;100.00;99209.94;4847208;29;20114;-67
2022/01/06 05:33:13;;;;;;;184.32;86.10;;;;;;;13.95;100.00;99212.25;4842233;29;20128;-66
2022/01/06 05:36:02;;;;;;;196.85;91.13;;;;;;;13.83;100.00;99212.66;4832268;29;20467;-66
2022/01/06 05:38:43;;;;;;;184.80;87.35;;;;;;;13.91;100.00;99207.22;4850812;29;20068;-64
2022/01/06 05:41:32;;;;;;;195.90;88.57;;;;;;;13.88;100.00;99210.78;4842026;29;20069;-68
2022/01/06 05:44:15;;;;;;;178.50;84.70;;;;;;;13.90;100.00;99208.97;4840809;29;20114;-69
2022/01/06 05:47:02;;;;;;;187.15;87.32;;;;;;;14.02;100.00;99202.50;4844990;29;20050;-66
2022/01/06 05:49:44;;;;;;;171.23;85.20;;;;;;;14.10;100.00;99193.56;4838970;29;20087;-65
2022/01/06 05:52:32;;;;;;;174.98;85.78;;;;;;;14.19;100.00;99192.38;4833294;29;20065;-66
2022/01/06 05:55:14;;;;;;;179.38;85.70;;;;;;;14.22;100.00;99184.47;4841543;29;20053;-65
2022/01/06 05:58:02;;;;;;;176.20;85.25;;;;;;;14.18;100.00;99185.53;4829851;29;20076;-68
2022/01/06 06:00:50;;;;;;;172.32;83.80;;;;;;;14.16;100.00;99185.56;4848069;29;20058;-67
2022/01/06 06:03:39;;;;;;;175.27;84.00;;;;;;;14.14;100.00;99184.78;4839666;29;20054;-66
2022/01/06 06:06:27;;;;;;;173.23;82.75;;;;;;;14.13;100.00;99177.03;4803731;29;20053;-68
2022/01/06 06:09:08;;;;;;;157.32;79.07;;;;;;;14.20;100.00;99175.94;4836200;29;20050;-68
2022/01/06 06:12:06;;;;;;;151.80;76.88;;;;;;;14.37;100.00;99172.69;4831693;29;20042;-64
2022/01/06 06:14:41;;;;;;;155.88;76.97;;;;;;;14.39;100.00;99165.75;4831888;29;20149;-64
2022/01/06 06:17:29;;;;;;;156.75;76.80;;;;;;;14.74;100.00;99161.81;4817958;29;20069;-63
2022/01/06 06:20:19;;;;;;;148.68;72.78;;;;;;;14.57;100.00;99165.06;4841430;29;20073;-61
2022/01/06 06:23:14;;;;;;;147.40;74.40;;;;;;;14.73;100.00;99155.78;4842526;29;20054;-67
2022/01/06 06:26:02;;;;;;;142.43;72.10;;;;;;;14.84;100.00;99147.59;4837167;29;20424;-63
2022/01/06 06:28:51;;;;;;;141.80;71.88;;;;;;;14.69;100.00;99140.38;4830659;29;20060;-62
2022/01/06 06:31:41;;;;;;;144.48;72.00;;;;;;;14.72;100.00;99135.94;4849923;29;20762;-63
2022/01/06 06:34:22;;;;;;;139.55;72.68;;;;;;;14.84;100.00;99138.06;4841062;29;20050;-62
2022/01/06 06:37:11;;;;;;;154.27;73.63;;;;;;;14.83;100.00;99128.59;4846771;29;20060;-63
2022/01/06 06:40:00;;;;;;;144.88;73.40;;;;;;;14.76;100.00;99128.91;4844599;29;20057;-67
2022/01/06 06:42:41;;;;;;;144.15;72.85;;;;;;;14.87;100.00;99117.16;4840149;29;20148;-67
2022/01/06 06:45:37;;;;;;;147.40;70.90;;;;;;;14.74;100.00;99108.19;4837287;29;20634;-64
2022/01/06 06:48:13;;;;;;;149.40;72.18;;;;;;;14.85;100.00;99112.94;4836082;29;20672;-63
2022/01/06 06:51:08;;;;;;;153.88;74.85;;;;;;;14.65;100.00;99108.56;4841822;29;20060;-64
2022/01/06 06:53:44;;;;;;;156.50;73.93;;;;;;;14.59;100.00;99105.38;4838043;29;20146;-66
2022/01/06 06:56:39;;;;;;;154.30;74.75;;;;;;;14.54;100.00;99108.13;4824884;29;20058;-67
2022/01/06 06:59:15;;;;;;;152.48;73.05;;;;;;;14.64;100.00;99098.25;4822086;29;20050;-65
2022/01/06 07:02:03;;;;;;;158.30;75.10;;;;;;;14.54;100.00;99098.59;4821665;29;20057;-64
2022/01/06 07:04:45;;;;;;;160.80;75.70;;;;;;;14.47;100.00;99089.38;4822859;29;20177;-65
2022/01/06 07:07:35;;;;;;;163.10;74.80;;;;;;;14.44;100.00;99086.94;4819956;29;20479;-67
2022/01/06 07:10:25;;;;;;;160.70;77.03;;;;;;;14.40;100.00;99081.91;4821496;29;20065;-67
2022/01/06 07:13:07;;;;;;;165.82;74.88;;;;;;;14.38;100.00;99076.78;4821084;29;20049;-67
2022/01/06 07:15:56;;;;;;;167.85;77.18;;;;;;;14.44;100.00;99070.53;4808626;29;20054;-68
2022/01/06 07:18:38;;;;;;;167.05;75.80;;;;;;;14.44;100.00;99063.59;4823708;29;20119;-68
2022/01/06 07:21:28;;;;;;;173.15;78.80;;;;;;;14.49;100.00;99058.22;4808636;29;20077;-65
2022/01/06 07:24:09;;;;;;;180.63;80.60;;;;;;;14.43;100.00;99050.69;4820837;29;21105;-71
2022/01/06 07:27:03;;;;;;;172.25;78.40;;;;;;;14.56;100.00;99044.09;4820290;29;20478;-66
2022/01/06 07:29:39;;;;;;;172.82;78.57;;;;;;;14.67;100.00;99041.94;4819344;29;20054;-64
2022/01/06 07:32:28;;;;;;;182.27;80.40;;;;;;;14.59;100.00;99044.00;4821478;29;20054;-68
2022/01/06 07:35:17;;;;;;;180.13;80.70;;;;;;;14.55;100.00;99045.00;4821368;29;20050;-72
2022/01/06 07:37:59;;;;;;;175.15;81.57;;;;;;;14.74;100.00;99043.38;4820156;29;20160;-66
2022/01/06 07:40:47;;;;;;;177.68;78.68;;;;;;;14.78;100.00;99044.91;4811109;29;20060;-65
2022/01/06 07:43:30;;;;;;;167.05;78.10;;;;;;;14.72;100.00;99036.53;4819733;29;20058;-66
2022/01/06 07:46:19;;;;;;;165.63;77.90;;;;;;;14.71;100.00;99033.09;4818724;29;20054;-67
2022/01/06 07:49:03;;;;;;;170.63;77.18;;;;;;;14.44;100.00;99023.88;4819854;29;20478;-67
2022/01/06 07:51:50;;;;;;;155.40;73.30;;;;;;;14.60;100.00;99030.13;4823232;29;20437;-67
2022/01/06 07:54:32;;;;;;;167.40;76.82;;;;;;;14.77;100.00;99027.66;4829544;29;20172;-66
2022/01/06 07:57:21;;;;;;;161.52;77.25;;;;;;;14.62;100.00;99015.31;4805718;29;20049;-66
2022/01/06 08:00:04;;;;;;;160.43;77.88;;;;;;;14.71;100.00;99017.53;4831457;29;20497;-68
2022/01/06 08:02:56;;;;;;;161.35;76.00;;;;;;;14.58;100.00;99015.53;4831387;29;20149;-67
2022/01/06 08:05:42;;;;;;;167.65;76.88;;;;;;;14.69;100.00;99008.97;4835479;29;20061;-69
2022/01/06 08:08:32;;;;;;;156.43;74.80;;;;;;;14.67;100.00;99005.63;4828798;29;20045;-69
2022/01/06 08:11:15;;;;;;;169.32;77.90;;;;;;;14.56;100.00;99007.81;4843747;29;20057;-67
2022/01/06 08:14:03;;;;;;;167.65;77.50;;;;;;;14.51;100.00;99009.75;4835066;29;20065;-68
2022/01/06 08:16:52;;;;;;;162.85;78.22;;;;;;;14.60;100.00;99003.34;4844102;29;20360;-67
2022/01/06 08:19:34;;;;;;;171.93;79.90;;;;;;;14.45;100.00;98994.44;4824022;29;20069;-67
2022/01/06 08:22:29;;;;;;;168.98;80.38;;;;;;;14.58;100.00;98992.19;4821697;29;20121;-67
2022/01/06 08:25:06;;;;;;;164.38;77.60;;;;;;;14.55;100.00;98985.38;4841555;29;20050;-66
2022/01/06 08:27:55;;;;;;;176.95;80.85;;;;;;;14.67;100.00;98976.25;4843332;29;20045;-65
2022/01/06 08:30:43;;;;;;;175.50;81.82;;;;;;;14.57;100.00;98970.59;4833047;29;20057;-67
2022/01/06 08:33:32;;;;;;;167.98;81.45;;;;;;;14.47;100.00;98974.47;4837590;29;20065;-68
2022/01/06 08:36:17;;;;;;;167.63;78.45;;;;;;;14.62;100.00;98984.22;4833657;29;20053;-66
2022/01/06 08:39:16;;;;;;;155.68;80.13;;;;;;;14.55;100.00;98982.78;4818443;29;20157;-68
2022/01/06 08:41:53;;;;;;;173.27;82.13;;;;;;;14.47;100.00;98971.88;4831052;29;20114;-67
2022/01/06 08:44:42;;;;;;;173.15;84.03;;;;;;;14.54;100.00;98968.13;4832127;29;20064;-68
2022/01/06 08:47:32;;;;;;;174.68;84.53;;;;;;;14.46;100.00;98959.81;4837851;29;20049;-70
2022/01/06 08:50:15;;;;;;;174.75;84.72;;;;;;;14.50;100.00;98964.00;4816971;29;20050;-67
2022/01/06 08:53:04;;;;;;;178.82;83.15;;;;;;;14.58;100.00;98964.53;4828421;29;20556;-68
2022/01/06 08:55:47;;;;;;;183.25;84.45;;;;;;;14.64;100.00;98958.22;4846268;29;20065;-68
2022/01/06 08:58:36;;;;;;;169.93;81.25;;;;;;;14.74;100.00;98959.53;4842052;29;20495;-68
2022/01/06 09:01:18;;;;;;;184.48;84.93;;;;;;;14.76;100.00;98947.34;4819214;29;20077;-72
2022/01/06 09:04:09;;;;;;;165.82;79.35;;;;;;;14.76;100.00;98955.13;4812866;29;20066;-74
2022/01/06 09:06:51;;;;;;;171.20;81.57;;;;;;;14.89;100.00;98949.34;4827226;29;20146;-74
2022/01/06 09:09:40;;;;;;;178.80;82.72;;;;;;;14.86;100.00;98953.81;4834381;29;20132;-75
2022/01/06 09:12:22;;;;;;;179.02;83.53;;;;;;;14.96;100.00;98956.84;4838590;29;20479;-74
2022/01/06 09:15:11;;;;;;;166.02;79.85;;;;;;;14.86;100.00;98957.25;4824782;29;20045;-74
2022/01/06 09:17:54;;;;;;;169.57;80.22;;;;;;;14.86;100.00;98962.44;4838175;29;20058;-73
2022/01/06 09:20:44;;;;;;;165.50;78.30;;;;;;;14.78;100.00;98955.88;4840627;29;20052;-71
2022/01/06 09:23:26;;;;;;;164.85;80.55;;;;;;;14.78;100.00;98961.91;4836565;29;20692;-74
2022/01/06 09:26:22;;;;;;;155.90;77.47;;;;;;;14.92;100.00;98959.56;4827073;29;20485;-73
2022/01/06 09:28:57;;;;;;;158.35;78.07;;;;;;;14.93;100.00;98961.25;4835625;29;20197;-70
2022/01/06 09:31:47;;;;;;;157.32;77.93;;;;;;;14.92;100.00;98964.75;4849879;29;20121;-69
2022/01/06 09:34:29;;;;;;;153.50;75.35;;;;;;;15.02;100.00;98965.22;4848166;29;20134;-67
2022/01/06 09:37:20;;;;;;;151.65;75.50;;;;;;;15.06;100.00;98963.34;4840512;29;20049;-73
2022/01/06 09:40:01;;;;;;;156.90;76.80;;;;;;;15.03;100.00;98966.06;4839068;29;20057;-66
2022/01/06 09:42:56;;;;;;;151.70;76.65;;;;;;;15.05;100.00;98966.84;4838092;29;20058;-72
2022/01/06 09:45:34;;;;;;;148.55;75.78;;;;;;;15.06;100.00;98956.41;4837698;29;20372;-71
2022/01/06 09:48:30;;;;;;;148.20;76.25;;;;;;;15.03;100.00;98966.06;4820604;29;20339;-68
2022/01/06 09:51:05;;;;;;;149.23;76.93;;;;;;;15.16;100.00;98960.28;4840299;29;20054;-65
2022/01/06 09:54:04;;;;;;;164.77;79.15;;;;;;;15.16;100.00;98970.66;4842387;29;20138;-65
2022/01/06 09:56:39;;;;;;;153.50;76.82;;;;;;;15.19;100.00;98957.53;4841270;29;20768;-67
2022/01/06 09:59:30;;;;;;;150.52;77.72;;;;;;;14.91;100.00;98970.88;4842098;29;20062;-66
2022/01/06 10:02:18;;;;;;;159.82;75.10;;;;;;;14.91;100.00;98967.44;4823099;29;20050;-65
2022/01/06 10:05:16;;;;;;;158.38;74.93;;;;;;;15.19;100.00;98967.06;4845408;29;20474;-67
2022/01/06 10:07:55;;;;;;;148.07;75.72;;;;;;;15.07;100.00;98971.06;4846996;29;20466;-67
2022/01/06 10:10:43;;;;;;;146.45;72.57;;;;;;;15.01;100.00;98965.28;4833275;29;20114;-66
2022/01/06 10:13:31;;;;;;;147.80;72.97;;;;;;;14.88;100.00;98968.41;4845544;29;20156;-64
2022/01/06 10:16:20;;;;;;;152.90;74.53;;;;;;;14.99;100.00;98967.94;4844903;29;20737;-67
2022/01/06 10:19:12;;;;;;;144.57;74.15;;;;;;;14.95;100.00;98968.97;4844186;29;20308;-68
2022/01/06 10:22:01;;;;;;;140.63;69.03;;;;;;;14.82;100.00;98960.03;4845972;29;20053;-67
2022/01/06 10:24:46;;;;;;;141.52;70.30;;;;;;;14.86;100.00;98965.03;4842365;29;20054;-67
2022/01/06 10:27:46;;;;;;;139.40;69.20;;;;;;;14.89;100.00;98962.31;4828583;29;20069;-64
2022/01/06 10:30:27;;;;;;;133.52;68.47;;;;;;;14.91;100.00;98970.03;4809070;29;20053;-67
2022/01/06 10:33:21;;;;;;;141.18;72.13;;;;;;;14.90;100.00;98965.75;4808305;29;20050;-66
2022/01/06 10:36:11;;;;;;;145.27;70.55;;;;;;;14.85;100.00;98973.72;4825200;29;20668;-66
2022/01/06 10:39:06;;;;;;;142.32;70.43;;;;;;;15.06;100.00;98964.19;4803289;29;20042;-66
2022/01/06 10:41:47;;;;;;;143.00;71.45;;;;;;;15.01;100.00;98958.34;4803748;29;20060;-65
2022/01/06 10:44:51;;;;;;;152.70;73.95;;;;;;;15.21;100.00;98953.13;4787998;29;20047;-70
2022/01/06 10:47:55;;;;;;;139.87;71.67;;;;;;;15.33;100.00;98952.56;4824597;29;20061;-67
2022/01/06 10:50:38;;;;;;;140.80;71.57;;;;;;;15.30;100.00;98947.53;4817771;29;20046;-66
2022/01/06 10:53:28;;;;;;;144.48;70.85;;;;;;;15.10;100.00;98954.50;4817709;29;20058;-65
2022/01/06 10:56:23;;;;;;;135.02;69.43;;;;;;;15.17;100.00;98951.56;4818113;29;20161;-65
2022/01/06 10:59:14;;;;;;;136.02;71.30;;;;;;;15.14;100.00;98948.28;4814538;29;20063;-68
2022/01/06 11:02:11;;;;;;;135.90;70.57;;;;;;;15.09;100.00;98948.47;4817479;29;20062;-65
2022/01/06 11:04:47;;;;;;;133.98;67.88;;;;;;;15.11;100.00;98948.41;4813602;29;20057;-69
2022/01/06 11:07:35;;;;;;;134.13;70.82;;;;;;;15.14;100.00;98950.88;4828097;29;20102;-66
2022/01/06 11:10:21;;;;;;;139.50;72.68;;;;;;;15.15;100.00;98943.03;4834006;29;20050;-65
2022/01/06 11:13:21;;;;;;;134.18;71.55;;;;;;;14.86;100.00;98944.28;4829961;29;20057;-65
2022/01/06 11:15:58;;;;;;;;;;;;;;;15.01;100.00;98944.50;4832798;29;20069;-66
2022/01/06 11:18:57;;;;;;;128.63;67.05;;;;;;;15.11;100.00;98938.03;4823232;29;20024;-66
2022/01/06 11:21:45;;;;;;;138.02;69.88;;;;;;;15.24;100.00;98928.78;4829854;29;20386;-65
2022/01/06 11:24:35;;;;;;;148.97;74.57;;;;;;;15.34;100.00;98940.44;4827024;29;20058;-66
2022/01/06 11:27:18;;;;;;;154.30;75.35;;;;;;;15.25;100.00;98946.03;4832082;29;20435;-64
2022/01/06 11:30:20;;;;;;;138.55;71.63;;;;;;;15.11;100.00;98945.81;4843928;29;20128;-65
2022/01/06 11:32:58;;;;;;;;;;;;;;;15.13;100.00;98946.59;4838963;29;20493;-64
2022/01/06 11:35:50;;;;;;;134.60;70.97;;;;;;;15.08;100.00;98951.16;4810955;29;19943;-66
2022/01/06 11:38:33;;;;;;;150.60;75.75;;;;;;;15.20;100.00;98942.81;4833032;29;20672;-66
2022/01/06 11:41:31;;;;;;;146.00;75.32;;;;;;;15.12;100.00;98952.69;4834314;29;20050;-66
2022/01/06 11:44:23;;;;;;;144.55;75.05;;;;;;;15.18;100.00;98945.47;4834206;29;20038;-64
2022/01/06 11:47:20;;;;;;;144.80;76.53;;;;;;;15.16;100.00;98949.06;4816413;29;20050;-64
2022/01/06 11:50:08;;;;;;;153.88;77.40;;;;;;;15.16;100.00;98952.50;4820162;29;20069;-65
2022/01/06 11:52:59;;;;;;;146.38;74.38;;;;;;;15.33;100.00;98954.31;4842055;29;20053;-65
2022/01/06 11:55:47;;;;;;;139.65;74.05;;;;;;;15.53;100.00;98954.31;4827671;29;20097;-67
2022/01/06 11:58:43;;;;;;;150.48;75.93;;;;;;;15.45;100.00;98953.78;4826262;29;20065;-66
2022/01/06 12:01:19;;;;;;;150.88;75.85;;;;;;;15.26;100.00;98953.75;4828734;29;20506;-64
2022/01/06 12:04:23;;;;;;;145.93;77.32;;;;;;;15.27;100.00;98944.22;4821763;29;20141;-64
2022/01/06 12:07:14;;;;;;;137.05;72.85;;;;;;;15.30;100.00;98957.06;4846913;29;20068;-64
2022/01/06 12:10:08;;;;;;;148.95;77.60;;;;;;;15.25;100.00;98948.63;4843392;29;20053;-65
2022/01/06 12:12:51;;;;;;;152.45;79.05;;;;;;;15.15;100.00;98949.97;4835829;29;20053;-66
2022/01/06 12:15:57;;;;;;;154.18;77.70;;;;;;;15.00;100.00;98967.06;4832550;29;20561;-65
2022/01/06 12:18:47;;;;;;;159.25;79.82;;;;;;;15.24;100.00;98965.13;4811756;29;20332;-66
2022/01/06 12:21:38;;;;;;;149.02;76.88;;;;;;;15.09;100.00;98965.78;4836338;29;20061;-67
2022/01/06 12:24:29;;;;;;;141.20;74.32;;;;;;;15.09;100.00;98961.44;4833094;29;20642;-66
2022/01/06 12:27:24;;;;;;;142.73;75.47;;;;;;;15.11;100.00;98959.63;4833937;29;20843;-63
2022/01/06 12:30:14;;;;;;;147.05;75.88;;;;;;;15.04;100.00;98966.00;4832933;29;20383;-63
2022/01/06 12:33:13;;;;;;;148.90;77.65;;;;;;;15.07;100.00;98965.88;4834793;29;20091;-68
2022/01/06 12:36:02;;;;;;;150.77;75.72;;;;;;;15.12;100.00;98971.69;4836340;29;20378;-74